sensor_id;sensor_type;location;lat;lon;timestamp;temperature;humidity
10788;DHT22;5446;50.826;4.380;2023-08-01T00:01:59;16.70;99.90
10788;DHT22;5446;50.826;4.380;2023-08-01T00:04:25;16.70;99.90
10788;DHT22;5446;50.826;4.380;2023-08-01T00:06:50;16.70;99.90
10788;DHT22;5446;50.826;4.380;2023-08-01T00:09:16;16.80;99.90
10788;DHT22;5446;50.826;4.380;2023-08-01T00:11:42;16.70;99.90
10788;DHT22;5446;50.826;4.380;2023-08-01T00:14:07;16.60;99.90
10788;DHT22;5446;50.826;4.380;2023-08-01T00:16:33;16.70;99.90
10788;DHT22;5446;50.826;4.380;2023-08-01T00:18:59;16.60;99.90
10788;DHT22;5446;50.826;4.380;2023-08-01T00:21:24;16.60;99.90
10788;DHT22;5446;50.826;4.380;2023-08-01T00:23:50;16.60;99.90
10788;DHT22;5446;50.826;4.380;2023-08-01T00:26:17;16.60;99.90
10788;DHT22;5446;50.826;4.380;2023-08-01T00:28:42;16.60;99.90
10788;DHT22;5446;50.826;4.380;2023-08-01T00:31:08;16.50;99.90
10788;DHT22;5446;50.826;4.380;2023-08-01T00:33:35;16.50;99.90
10788;DHT22;5446;50.826;4.380;2023-08-01T00:36:01;16.50;99.90
10788;DHT22;5446;50.826;4.380;2023-08-01T00:38:27;16.50;99.90
10788;DHT22;5446;50.826;4.380;2023-08-01T00:40:52;16.50;99.90
10788;DHT22;5446;50.826;4.380;2023-08-01T00:43:18;16.40;99.90
10788;DHT22;5446;50.826;4.380;2023-08-01T00:45:44;16.40;99.90
10788;DHT22;5446;50.826;4.380;2023-08-01T00:48:10;16.40;99.90
10788;DHT22;5446;50.826;4.380;2023-08-01T00:50:37;16.30;99.90
10788;DHT22;5446;50.826;4.380;2023-08-01T00:53:03;16.30;99.90
10788;DHT22;5446;50.826;4.380;2023-08-01T00:55:31;16.30;99.90
10788;DHT22;5446;50.826;4.380;2023-08-01T00:57:58;16.30;99.90
10788;DHT22;5446;50.826;4.380;2023-08-01T01:00:23;16.30;99.90
10788;DHT22;5446;50.826;4.380;2023-08-01T01:02:49;16.30;99.90
10788;DHT22;5446;50.826;4.380;2023-08-01T01:05:15;16.20;99.90
10788;DHT22;5446;50.826;4.380;2023-08-01T01:07:41;16.20;99.90
10788;DHT22;5446;50.826;4.380;2023-08-01T01:10:07;16.20;99.90
10788;DHT22;5446;50.826;4.380;2023-08-01T01:12:33;16.20;99.90
10788;DHT22;5446;50.826;4.380;2023-08-01T01:14:58;16.20;99.90
10788;DHT22;5446;50.826;4.380;2023-08-01T01:17:24;16.20;99.90
10788;DHT22;5446;50.826;4.380;2023-08-01T01:19:50;16.10;99.90
10788;DHT22;5446;50.826;4.380;2023-08-01T01:22:16;16.10;99.90
10788;DHT22;5446;50.826;4.380;2023-08-01T01:24:44;16.10;99.90
10788;DHT22;5446;50.826;4.380;2023-08-01T01:27:12;16.10;99.90
10788;DHT22;5446;50.826;4.380;2023-08-01T01:29:38;16.10;99.90
10788;DHT22;5446;50.826;4.380;2023-08-01T01:32:06;16.00;99.90
10788;DHT22;5446;50.826;4.380;2023-08-01T01:34:32;16.10;99.90
10788;DHT22;5446;50.826;4.380;2023-08-01T01:36:58;16.10;99.90
10788;DHT22;5446;50.826;4.380;2023-08-01T01:39:23;16.10;99.90
10788;DHT22;5446;50.826;4.380;2023-08-01T01:41:49;16.00;99.90
10788;DHT22;5446;50.826;4.380;2023-08-01T01:44:15;16.10;99.90
10788;DHT22;5446;50.826;4.380;2023-08-01T01:46:40;16.00;99.90
10788;DHT22;5446;50.826;4.380;2023-08-01T01:49:06;16.00;99.90
10788;DHT22;5446;50.826;4.380;2023-08-01T01:51:32;16.00;99.90
10788;DHT22;5446;50.826;4.380;2023-08-01T01:53:58;16.00;99.90
10788;DHT22;5446;50.826;4.380;2023-08-01T01:56:23;15.90;99.90
10788;DHT22;5446;50.826;4.380;2023-08-01T01:58:49;15.90;99.90
10788;DHT22;5446;50.826;4.380;2023-08-01T02:01:15;16.00;99.90
10788;DHT22;5446;50.826;4.380;2023-08-01T02:03:40;15.90;99.90
10788;DHT22;5446;50.826;4.380;2023-08-01T02:06:06;15.90;99.90
10788;DHT22;5446;50.826;4.380;2023-08-01T02:08:32;15.90;99.90
10788;DHT22;5446;50.826;4.380;2023-08-01T02:10:57;16.00;99.90
10788;DHT22;5446;50.826;4.380;2023-08-01T02:13:25;16.00;99.90
10788;DHT22;5446;50.826;4.380;2023-08-01T02:15:51;15.90;99.90
10788;DHT22;5446;50.826;4.380;2023-08-01T02:18:17;15.90;99.90
10788;DHT22;5446;50.826;4.380;2023-08-01T02:20:42;15.90;99.90
10788;DHT22;5446;50.826;4.380;2023-08-01T02:23:08;15.90;99.90
10788;DHT22;5446;50.826;4.380;2023-08-01T02:25:41;15.90;99.90
10788;DHT22;5446;50.826;4.380;2023-08-01T02:28:07;15.90;99.90
10788;DHT22;5446;50.826;4.380;2023-08-01T02:30:34;15.90;99.90
10788;DHT22;5446;50.826;4.380;2023-08-01T02:33:00;15.90;99.90
10788;DHT22;5446;50.826;4.380;2023-08-01T02:35:26;15.90;99.90
10788;DHT22;5446;50.826;4.380;2023-08-01T02:37:53;15.80;99.90
10788;DHT22;5446;50.826;4.380;2023-08-01T02:40:19;15.80;99.90
10788;DHT22;5446;50.826;4.380;2023-08-01T02:42:45;15.80;99.90
10788;DHT22;5446;50.826;4.380;2023-08-01T02:45:11;15.90;99.90
10788;DHT22;5446;50.826;4.380;2023-08-01T02:47:36;15.90;99.90
10788;DHT22;5446;50.826;4.380;2023-08-01T02:50:02;15.80;99.90
10788;DHT22;5446;50.826;4.380;2023-08-01T02:52:28;15.90;99.90
10788;DHT22;5446;50.826;4.380;2023-08-01T02:54:54;15.80;99.90
10788;DHT22;5446;50.826;4.380;2023-08-01T02:57:19;15.80;99.90
10788;DHT22;5446;50.826;4.380;2023-08-01T02:59:45;15.80;99.90
10788;DHT22;5446;50.826;4.380;2023-08-01T03:02:11;15.80;99.90
10788;DHT22;5446;50.826;4.380;2023-08-01T03:04:36;15.80;99.90
10788;DHT22;5446;50.826;4.380;2023-08-01T03:07:02;15.70;99.90
10788;DHT22;5446;50.826;4.380;2023-08-01T03:09:28;15.80;99.90
10788;DHT22;5446;50.826;4.380;2023-08-01T03:11:54;15.80;99.90
10788;DHT22;5446;50.826;4.380;2023-08-01T03:14:19;15.80;99.90
10788;DHT22;5446;50.826;4.380;2023-08-01T03:16:45;15.80;99.90
10788;DHT22;5446;50.826;4.380;2023-08-01T03:19:10;15.80;99.90
10788;DHT22;5446;50.826;4.380;2023-08-01T03:21:36;15.80;99.90
10788;DHT22;5446;50.826;4.380;2023-08-01T03:24:03;15.80;99.90
10788;DHT22;5446;50.826;4.380;2023-08-01T03:26:29;15.80;99.90
10788;DHT22;5446;50.826;4.380;2023-08-01T03:28:55;15.80;99.90
10788;DHT22;5446;50.826;4.380;2023-08-01T03:31:24;15.80;99.90
10788;DHT22;5446;50.826;4.380;2023-08-01T03:33:50;15.80;99.90
10788;DHT22;5446;50.826;4.380;2023-08-01T03:36:17;15.90;99.90
10788;DHT22;5446;50.826;4.380;2023-08-01T03:38:43;15.90;99.90
10788;DHT22;5446;50.826;4.380;2023-08-01T03:41:09;15.80;99.90
10788;DHT22;5446;50.826;4.380;2023-08-01T03:43:34;15.80;99.90
10788;DHT22;5446;50.826;4.380;2023-08-01T03:46:00;15.80;99.90
10788;DHT22;5446;50.826;4.380;2023-08-01T03:48:26;15.80;99.90
10788;DHT22;5446;50.826;4.380;2023-08-01T03:50:52;15.80;99.90
10788;DHT22;5446;50.826;4.380;2023-08-01T03:53:17;15.80;99.90
10788;DHT22;5446;50.826;4.380;2023-08-01T03:55:44;15.80;99.90
10788;DHT22;5446;50.826;4.380;2023-08-01T03:58:10;15.80;99.90
10788;DHT22;5446;50.826;4.380;2023-08-01T04:00:35;15.80;99.90
10788;DHT22;5446;50.826;4.380;2023-08-01T04:03:02;15.80;99.90
10788;DHT22;5446;50.826;4.380;2023-08-01T04:05:28;15.80;99.90
10788;DHT22;5446;50.826;4.380;2023-08-01T04:07:54;15.80;99.90
10788;DHT22;5446;50.826;4.380;2023-08-01T04:10:22;15.80;99.90
10788;DHT22;5446;50.826;4.380;2023-08-01T04:12:48;15.80;99.90
10788;DHT22;5446;50.826;4.380;2023-08-01T04:15:14;15.80;99.90
10788;DHT22;5446;50.826;4.380;2023-08-01T04:17:40;15.80;99.90
10788;DHT22;5446;50.826;4.380;2023-08-01T04:20:06;15.80;99.90
10788;DHT22;5446;50.826;4.380;2023-08-01T04:22:32;15.80;99.90
10788;DHT22;5446;50.826;4.380;2023-08-01T04:24:58;15.70;99.90
10788;DHT22;5446;50.826;4.380;2023-08-01T04:27:24;15.70;99.90
10788;DHT22;5446;50.826;4.380;2023-08-01T04:29:49;15.70;99.90
10788;DHT22;5446;50.826;4.380;2023-08-01T04:32:15;15.70;99.90
10788;DHT22;5446;50.826;4.380;2023-08-01T04:34:41;15.70;99.90
10788;DHT22;5446;50.826;4.380;2023-08-01T04:37:07;15.70;99.90
10788;DHT22;5446;50.826;4.380;2023-08-01T04:39:33;15.70;99.90
10788;DHT22;5446;50.826;4.380;2023-08-01T04:41:59;15.70;99.90
10788;DHT22;5446;50.826;4.380;2023-08-01T04:44:25;15.70;99.90
10788;DHT22;5446;50.826;4.380;2023-08-01T04:46:51;15.70;99.90
10788;DHT22;5446;50.826;4.380;2023-08-01T04:49:16;15.70;99.90
10788;DHT22;5446;50.826;4.380;2023-08-01T04:51:42;15.70;99.90
10788;DHT22;5446;50.826;4.380;2023-08-01T04:54:08;15.70;99.90
10788;DHT22;5446;50.826;4.380;2023-08-01T04:56:33;15.70;99.90
10788;DHT22;5446;50.826;4.380;2023-08-01T04:58:59;15.70;99.90
10788;DHT22;5446;50.826;4.380;2023-08-01T05:01:27;15.80;99.90
10788;DHT22;5446;50.826;4.380;2023-08-01T05:03:53;15.80;99.90
10788;DHT22;5446;50.826;4.380;2023-08-01T05:06:20;15.80;99.90
10788;DHT22;5446;50.826;4.380;2023-08-01T05:08:45;15.80;99.90
10788;DHT22;5446;50.826;4.380;2023-08-01T05:11:11;15.80;99.90
10788;DHT22;5446;50.826;4.380;2023-08-01T05:13:36;15.80;99.90
10788;DHT22;5446;50.826;4.380;2023-08-01T05:16:02;15.90;99.90
10788;DHT22;5446;50.826;4.380;2023-08-01T05:18:28;15.90;99.90
10788;DHT22;5446;50.826;4.380;2023-08-01T05:20:54;15.90;99.90
10788;DHT22;5446;50.826;4.380;2023-08-01T05:23:20;15.90;99.90
10788;DHT22;5446;50.826;4.380;2023-08-01T05:25:45;16.00;99.90
10788;DHT22;5446;50.826;4.380;2023-08-01T05:28:11;16.00;99.90
10788;DHT22;5446;50.826;4.380;2023-08-01T05:30:37;16.00;99.90
10788;DHT22;5446;50.826;4.380;2023-08-01T05:33:03;16.10;99.90
10788;DHT22;5446;50.826;4.380;2023-08-01T05:35:30;16.10;99.90
10788;DHT22;5446;50.826;4.380;2023-08-01T05:37:56;16.20;99.90
10788;DHT22;5446;50.826;4.380;2023-08-01T05:40:21;16.20;99.90
10788;DHT22;5446;50.826;4.380;2023-08-01T05:42:47;16.20;99.90
10788;DHT22;5446;50.826;4.380;2023-08-01T05:45:13;16.10;99.90
10788;DHT22;5446;50.826;4.380;2023-08-01T05:47:38;16.20;99.90
10788;DHT22;5446;50.826;4.380;2023-08-01T05:50:06;16.20;99.90
10788;DHT22;5446;50.826;4.380;2023-08-01T05:52:32;16.30;99.90
10788;DHT22;5446;50.826;4.380;2023-08-01T05:54:58;16.40;99.90
10788;DHT22;5446;50.826;4.380;2023-08-01T05:57:24;16.40;99.90
10788;DHT22;5446;50.826;4.380;2023-08-01T05:59:49;16.50;99.90
10788;DHT22;5446;50.826;4.380;2023-08-01T06:02:15;16.50;99.90
10788;DHT22;5446;50.826;4.380;2023-08-01T06:04:41;16.50;99.90
10788;DHT22;5446;50.826;4.380;2023-08-01T06:07:07;16.50;99.90
10788;DHT22;5446;50.826;4.380;2023-08-01T06:09:32;16.50;99.90
10788;DHT22;5446;50.826;4.380;2023-08-01T06:11:58;16.50;99.90
10788;DHT22;5446;50.826;4.380;2023-08-01T06:14:24;16.50;99.90
10788;DHT22;5446;50.826;4.380;2023-08-01T06:16:50;16.50;99.90
10788;DHT22;5446;50.826;4.380;2023-08-01T06:19:15;16.50;99.90
10788;DHT22;5446;50.826;4.380;2023-08-01T06:21:41;16.40;99.90
10788;DHT22;5446;50.826;4.380;2023-08-01T06:24:07;16.40;99.90
10788;DHT22;5446;50.826;4.380;2023-08-01T06:26:34;16.60;99.90
10788;DHT22;5446;50.826;4.380;2023-08-01T06:29:00;16.70;99.90
10788;DHT22;5446;50.826;4.380;2023-08-01T06:31:25;16.80;99.90
10788;DHT22;5446;50.826;4.380;2023-08-01T06:33:51;17.00;99.90
10788;DHT22;5446;50.826;4.380;2023-08-01T06:36:17;17.10;99.90
10788;DHT22;5446;50.826;4.380;2023-08-01T06:38:43;17.10;99.90
10788;DHT22;5446;50.826;4.380;2023-08-01T06:41:09;17.10;99.90
10788;DHT22;5446;50.826;4.380;2023-08-01T06:43:35;17.00;99.90
10788;DHT22;5446;50.826;4.380;2023-08-01T06:46:04;17.00;99.90
10788;DHT22;5446;50.826;4.380;2023-08-01T06:48:30;16.90;99.90
10788;DHT22;5446;50.826;4.380;2023-08-01T06:50:56;16.90;99.90
10788;DHT22;5446;50.826;4.380;2023-08-01T06:53:21;17.00;99.90
10788;DHT22;5446;50.826;4.380;2023-08-01T06:55:47;17.00;99.90
10788;DHT22;5446;50.826;4.380;2023-08-01T06:58:13;17.10;99.90
10788;DHT22;5446;50.826;4.380;2023-08-01T07:00:38;17.10;99.90
10788;DHT22;5446;50.826;4.380;2023-08-01T07:03:04;17.30;99.90
10788;DHT22;5446;50.826;4.380;2023-08-01T07:05:30;17.40;99.90
10788;DHT22;5446;50.826;4.380;2023-08-01T07:07:55;17.50;99.90
10788;DHT22;5446;50.826;4.380;2023-08-01T07:10:23;17.40;99.90
10788;DHT22;5446;50.826;4.380;2023-08-01T07:12:49;17.50;99.90
10788;DHT22;5446;50.826;4.380;2023-08-01T07:15:14;17.60;99.90
10788;DHT22;5446;50.826;4.380;2023-08-01T07:17:40;17.60;99.90
10788;DHT22;5446;50.826;4.380;2023-08-01T07:20:06;17.60;99.90
10788;DHT22;5446;50.826;4.380;2023-08-01T07:22:32;17.40;99.90
10788;DHT22;5446;50.826;4.380;2023-08-01T07:24:57;17.40;99.90
10788;DHT22;5446;50.826;4.380;2023-08-01T07:27:23;17.40;99.90
10788;DHT22;5446;50.826;4.380;2023-08-01T07:29:49;17.40;99.90
10788;DHT22;5446;50.826;4.380;2023-08-01T07:32:15;17.40;99.90
10788;DHT22;5446;50.826;4.380;2023-08-01T07:34:40;17.40;99.90
10788;DHT22;5446;50.826;4.380;2023-08-01T07:37:06;17.50;99.90
10788;DHT22;5446;50.826;4.380;2023-08-01T07:39:38;17.70;99.90
10788;DHT22;5446;50.826;4.380;2023-08-01T07:42:03;17.60;99.90
10788;DHT22;5446;50.826;4.380;2023-08-01T07:44:30;17.70;99.90
10788;DHT22;5446;50.826;4.380;2023-08-01T07:46:57;17.70;99.90
10788;DHT22;5446;50.826;4.380;2023-08-01T07:49:23;17.80;99.90
10788;DHT22;5446;50.826;4.380;2023-08-01T07:51:48;17.80;99.90
10788;DHT22;5446;50.826;4.380;2023-08-01T07:54:14;17.70;99.90
10788;DHT22;5446;50.826;4.380;2023-08-01T07:56:40;17.70;99.90
10788;DHT22;5446;50.826;4.380;2023-08-01T07:59:06;17.90;99.90
10788;DHT22;5446;50.826;4.380;2023-08-01T08:01:31;17.90;99.90
10788;DHT22;5446;50.826;4.380;2023-08-01T08:03:57;17.90;99.90
10788;DHT22;5446;50.826;4.380;2023-08-01T08:06:23;17.70;99.90
10788;DHT22;5446;50.826;4.380;2023-08-01T08:08:49;17.70;99.90
10788;DHT22;5446;50.826;4.380;2023-08-01T08:11:15;17.70;99.90
10788;DHT22;5446;50.826;4.380;2023-08-01T08:13:42;18.10;99.90
10788;DHT22;5446;50.826;4.380;2023-08-01T08:16:08;18.10;99.90
10788;DHT22;5446;50.826;4.380;2023-08-01T08:18:33;18.10;99.90
10788;DHT22;5446;50.826;4.380;2023-08-01T08:20:59;18.20;99.90
10788;DHT22;5446;50.826;4.380;2023-08-01T08:23:24;18.20;99.90
10788;DHT22;5446;50.826;4.380;2023-08-01T08:25:50;18.20;99.90
10788;DHT22;5446;50.826;4.380;2023-08-01T08:28:30;18.20;99.90
10788;DHT22;5446;50.826;4.380;2023-08-01T08:30:56;18.30;99.90
10788;DHT22;5446;50.826;4.380;2023-08-01T08:33:22;18.20;99.90
10788;DHT22;5446;50.826;4.380;2023-08-01T08:35:49;18.30;99.90
10788;DHT22;5446;50.826;4.380;2023-08-01T08:38:15;18.30;99.90
10788;DHT22;5446;50.826;4.380;2023-08-01T08:40:48;18.30;99.90
10788;DHT22;5446;50.826;4.380;2023-08-01T08:43:17;18.40;99.90
10788;DHT22;5446;50.826;4.380;2023-08-01T08:45:44;18.50;99.90
10788;DHT22;5446;50.826;4.380;2023-08-01T08:48:16;18.40;99.90
10788;DHT22;5446;50.826;4.380;2023-08-01T08:50:43;18.40;99.90
10788;DHT22;5446;50.826;4.380;2023-08-01T08:53:10;18.50;99.90
10788;DHT22;5446;50.826;4.380;2023-08-01T08:55:39;18.70;99.90
10788;DHT22;5446;50.826;4.380;2023-08-01T08:58:05;18.60;99.90
10788;DHT22;5446;50.826;4.380;2023-08-01T09:00:31;18.70;99.90
10788;DHT22;5446;50.826;4.380;2023-08-01T09:02:57;18.70;99.90
10788;DHT22;5446;50.826;4.380;2023-08-01T09:05:27;18.70;99.90
10788;DHT22;5446;50.826;4.380;2023-08-01T09:07:56;18.50;99.90
10788;DHT22;5446;50.826;4.380;2023-08-01T09:10:23;18.60;99.90
10788;DHT22;5446;50.826;4.380;2023-08-01T09:12:49;18.80;99.90
10788;DHT22;5446;50.826;4.380;2023-08-01T09:15:15;18.70;99.90
10788;DHT22;5446;50.826;4.380;2023-08-01T09:17:51;18.60;99.90
10788;DHT22;5446;50.826;4.380;2023-08-01T09:20:17;18.60;99.90
10788;DHT22;5446;50.826;4.380;2023-08-01T09:22:44;18.70;99.90
10788;DHT22;5446;50.826;4.380;2023-08-01T09:25:10;18.90;99.90
10788;DHT22;5446;50.826;4.380;2023-08-01T09:27:36;19.30;99.90
10788;DHT22;5446;50.826;4.380;2023-08-01T09:30:13;19.40;99.90
10788;DHT22;5446;50.826;4.380;2023-08-01T09:32:54;19.40;99.90
10788;DHT22;5446;50.826;4.380;2023-08-01T09:35:22;19.40;99.90
10788;DHT22;5446;50.826;4.380;2023-08-01T09:37:48;19.50;99.90
10788;DHT22;5446;50.826;4.380;2023-08-01T09:40:14;19.70;99.90
10788;DHT22;5446;50.826;4.380;2023-08-01T09:42:41;19.60;99.90
10788;DHT22;5446;50.826;4.380;2023-08-01T09:45:14;19.40;99.90
10788;DHT22;5446;50.826;4.380;2023-08-01T09:47:41;19.20;99.90
10788;DHT22;5446;50.826;4.380;2023-08-01T09:50:08;19.20;99.90
10788;DHT22;5446;50.826;4.380;2023-08-01T09:52:34;19.30;99.90
10788;DHT22;5446;50.826;4.380;2023-08-01T09:55:00;19.50;99.90
10788;DHT22;5446;50.826;4.380;2023-08-01T09:57:29;19.30;99.90
10788;DHT22;5446;50.826;4.380;2023-08-01T09:59:59;19.40;99.90
10788;DHT22;5446;50.826;4.380;2023-08-01T10:02:30;19.50;99.90
10788;DHT22;5446;50.826;4.380;2023-08-01T10:04:58;19.60;99.90
10788;DHT22;5446;50.826;4.380;2023-08-01T10:07:26;19.60;99.90
10788;DHT22;5446;50.826;4.380;2023-08-01T10:09:57;19.80;99.90
10788;DHT22;5446;50.826;4.380;2023-08-01T10:12:25;19.80;99.90
10788;DHT22;5446;50.826;4.380;2023-08-01T10:14:52;19.70;99.90
10788;DHT22;5446;50.826;4.380;2023-08-01T10:17:18;19.80;99.90
10788;DHT22;5446;50.826;4.380;2023-08-01T10:19:45;19.70;99.90
10788;DHT22;5446;50.826;4.380;2023-08-01T10:22:12;19.60;99.90
10788;DHT22;5446;50.826;4.380;2023-08-01T10:24:39;19.90;99.90
10788;DHT22;5446;50.826;4.380;2023-08-01T10:27:18;20.10;99.90
10788;DHT22;5446;50.826;4.380;2023-08-01T10:29:44;20.10;99.90
10788;DHT22;5446;50.826;4.380;2023-08-01T10:32:11;20.40;99.90
10788;DHT22;5446;50.826;4.380;2023-08-01T10:34:37;20.30;99.90
10788;DHT22;5446;50.826;4.380;2023-08-01T10:37:03;20.20;99.90
10788;DHT22;5446;50.826;4.380;2023-08-01T10:39:29;20.30;99.90
10788;DHT22;5446;50.826;4.380;2023-08-01T10:42:03;20.20;99.90
10788;DHT22;5446;50.826;4.380;2023-08-01T10:44:29;20.40;99.90
10788;DHT22;5446;50.826;4.380;2023-08-01T10:46:59;20.40;99.90
10788;DHT22;5446;50.826;4.380;2023-08-01T10:49:42;20.40;99.90
10788;DHT22;5446;50.826;4.380;2023-08-01T10:54:44;20.70;99.90
10788;DHT22;5446;50.826;4.380;2023-08-01T10:57:15;20.90;99.90
10788;DHT22;5446;50.826;4.380;2023-08-01T10:59:43;20.80;99.90
10788;DHT22;5446;50.826;4.380;2023-08-01T11:02:09;20.70;99.90
10788;DHT22;5446;50.826;4.380;2023-08-01T11:04:35;20.80;99.90
10788;DHT22;5446;50.826;4.380;2023-08-01T11:07:01;20.90;99.90
10788;DHT22;5446;50.826;4.380;2023-08-01T11:09:28;20.90;99.90
10788;DHT22;5446;50.826;4.380;2023-08-01T11:11:56;21.00;99.90
10788;DHT22;5446;50.826;4.380;2023-08-01T11:14:26;20.90;99.90
10788;DHT22;5446;50.826;4.380;2023-08-01T11:16:54;20.80;99.90
10788;DHT22;5446;50.826;4.380;2023-08-01T11:19:28;21.00;99.90
10788;DHT22;5446;50.826;4.380;2023-08-01T11:21:55;20.90;99.90
10788;DHT22;5446;50.826;4.380;2023-08-01T11:24:26;21.10;99.90
10788;DHT22;5446;50.826;4.380;2023-08-01T11:26:53;21.20;99.90
10788;DHT22;5446;50.826;4.380;2023-08-01T11:29:20;21.20;99.90
10788;DHT22;5446;50.826;4.380;2023-08-01T11:31:59;21.30;99.90
10788;DHT22;5446;50.826;4.380;2023-08-01T11:34:25;21.10;99.90
10788;DHT22;5446;50.826;4.380;2023-08-01T11:36:51;21.00;99.90
10788;DHT22;5446;50.826;4.380;2023-08-01T11:39:18;21.00;99.90
10788;DHT22;5446;50.826;4.380;2023-08-01T11:41:45;20.90;99.90
10788;DHT22;5446;50.826;4.380;2023-08-01T11:44:11;20.70;99.90
10788;DHT22;5446;50.826;4.380;2023-08-01T11:46:38;20.70;99.90
10788;DHT22;5446;50.826;4.380;2023-08-01T11:49:07;21.00;99.90
10788;DHT22;5446;50.826;4.380;2023-08-01T11:51:43;21.10;99.90
10788;DHT22;5446;50.826;4.380;2023-08-01T11:54:10;20.80;99.90
10788;DHT22;5446;50.826;4.380;2023-08-01T11:56:37;20.90;99.90
10788;DHT22;5446;50.826;4.380;2023-08-01T11:59:15;20.80;99.90
10788;DHT22;5446;50.826;4.380;2023-08-01T12:01:43;21.00;99.90
10788;DHT22;5446;50.826;4.380;2023-08-01T12:04:10;21.10;99.90
10788;DHT22;5446;50.826;4.380;2023-08-01T12:06:36;21.30;99.90
10788;DHT22;5446;50.826;4.380;2023-08-01T12:09:14;21.40;99.90
10788;DHT22;5446;50.826;4.380;2023-08-01T12:11:40;21.70;99.90
10788;DHT22;5446;50.826;4.380;2023-08-01T12:14:10;21.70;99.90
10788;DHT22;5446;50.826;4.380;2023-08-01T12:16:37;21.50;99.90
10788;DHT22;5446;50.826;4.380;2023-08-01T12:19:04;21.40;99.90
10788;DHT22;5446;50.826;4.380;2023-08-01T12:21:32;21.50;99.90
10788;DHT22;5446;50.826;4.380;2023-08-01T12:23:58;21.50;99.90
10788;DHT22;5446;50.826;4.380;2023-08-01T12:26:24;21.30;99.90
10788;DHT22;5446;50.826;4.380;2023-08-01T12:28:50;21.40;99.90
10788;DHT22;5446;50.826;4.380;2023-08-01T12:31:17;21.30;99.90
10788;DHT22;5446;50.826;4.380;2023-08-01T12:33:44;21.30;99.90
10788;DHT22;5446;50.826;4.380;2023-08-01T12:36:09;21.10;99.90
10788;DHT22;5446;50.826;4.380;2023-08-01T12:38:35;20.90;99.90
10788;DHT22;5446;50.826;4.380;2023-08-01T12:41:01;20.80;99.90
10788;DHT22;5446;50.826;4.380;2023-08-01T12:43:27;20.60;99.90
10788;DHT22;5446;50.826;4.380;2023-08-01T12:45:53;20.50;99.90
10788;DHT22;5446;50.826;4.380;2023-08-01T12:48:21;20.50;99.90
10788;DHT22;5446;50.826;4.380;2023-08-01T12:50:46;20.40;99.90
10788;DHT22;5446;50.826;4.380;2023-08-01T12:53:14;20.40;99.90
10788;DHT22;5446;50.826;4.380;2023-08-01T12:55:45;20.30;99.90
10788;DHT22;5446;50.826;4.380;2023-08-01T12:58:11;20.20;99.90
10788;DHT22;5446;50.826;4.380;2023-08-01T13:00:38;20.00;99.90
10788;DHT22;5446;50.826;4.380;2023-08-01T13:03:04;19.80;99.90
10788;DHT22;5446;50.826;4.380;2023-08-01T13:05:30;19.90;99.90
10788;DHT22;5446;50.826;4.380;2023-08-01T13:07:55;19.90;99.90
10788;DHT22;5446;50.826;4.380;2023-08-01T13:10:21;20.00;99.90
10788;DHT22;5446;50.826;4.380;2023-08-01T13:12:47;20.00;99.90
10788;DHT22;5446;50.826;4.380;2023-08-01T13:15:12;20.20;99.90
10788;DHT22;5446;50.826;4.380;2023-08-01T13:17:38;20.40;99.90
10788;DHT22;5446;50.826;4.380;2023-08-01T13:20:08;20.60;99.90
10788;DHT22;5446;50.826;4.380;2023-08-01T13:22:33;20.50;99.90
10788;DHT22;5446;50.826;4.380;2023-08-01T13:24:59;20.50;99.90
10788;DHT22;5446;50.826;4.380;2023-08-01T13:27:25;20.50;99.90
10788;DHT22;5446;50.826;4.380;2023-08-01T13:29:50;20.70;99.90
10788;DHT22;5446;50.826;4.380;2023-08-01T13:32:18;20.70;99.90
10788;DHT22;5446;50.826;4.380;2023-08-01T13:34:43;20.60;99.90
10788;DHT22;5446;50.826;4.380;2023-08-01T13:37:09;20.80;99.90
10788;DHT22;5446;50.826;4.380;2023-08-01T13:39:35;21.10;99.90
10788;DHT22;5446;50.826;4.380;2023-08-01T13:42:01;21.10;99.90
10788;DHT22;5446;50.826;4.380;2023-08-01T13:44:26;21.00;99.90
10788;DHT22;5446;50.826;4.380;2023-08-01T13:46:52;21.20;99.90
10788;DHT22;5446;50.826;4.380;2023-08-01T13:49:18;21.10;99.90
10788;DHT22;5446;50.826;4.380;2023-08-01T13:51:44;21.20;99.90
10788;DHT22;5446;50.826;4.380;2023-08-01T13:54:10;21.30;99.90
10788;DHT22;5446;50.826;4.380;2023-08-01T13:56:35;21.30;99.90
10788;DHT22;5446;50.826;4.380;2023-08-01T13:59:01;21.30;99.90
10788;DHT22;5446;50.826;4.380;2023-08-01T14:01:27;21.40;99.90
10788;DHT22;5446;50.826;4.380;2023-08-01T14:03:54;21.50;99.90
10788;DHT22;5446;50.826;4.380;2023-08-01T14:06:20;21.40;99.90
10788;DHT22;5446;50.826;4.380;2023-08-01T14:08:45;21.50;99.90
10788;DHT22;5446;50.826;4.380;2023-08-01T14:11:11;21.40;99.90
10788;DHT22;5446;50.826;4.380;2023-08-01T14:13:37;21.30;99.90
10788;DHT22;5446;50.826;4.380;2023-08-01T14:16:03;21.20;99.90
10788;DHT22;5446;50.826;4.380;2023-08-01T14:18:29;20.90;99.90
10788;DHT22;5446;50.826;4.380;2023-08-01T14:20:55;20.70;99.90
10788;DHT22;5446;50.826;4.380;2023-08-01T14:23:21;20.60;99.90
10788;DHT22;5446;50.826;4.380;2023-08-01T14:25:47;20.60;99.90
10788;DHT22;5446;50.826;4.380;2023-08-01T14:28:13;20.60;99.90
10788;DHT22;5446;50.826;4.380;2023-08-01T14:30:39;20.40;99.90
10788;DHT22;5446;50.826;4.380;2023-08-01T14:33:07;20.30;99.90
10788;DHT22;5446;50.826;4.380;2023-08-01T14:35:36;20.30;99.90
10788;DHT22;5446;50.826;4.380;2023-08-01T14:38:02;20.20;99.90
10788;DHT22;5446;50.826;4.380;2023-08-01T14:40:29;20.20;99.90
10788;DHT22;5446;50.826;4.380;2023-08-01T14:42:55;20.20;99.90
10788;DHT22;5446;50.826;4.380;2023-08-01T14:45:21;20.20;99.90
10788;DHT22;5446;50.826;4.380;2023-08-01T14:47:47;20.10;99.90
10788;DHT22;5446;50.826;4.380;2023-08-01T14:50:13;20.10;99.90
10788;DHT22;5446;50.826;4.380;2023-08-01T14:52:40;20.20;99.90
10788;DHT22;5446;50.826;4.380;2023-08-01T14:55:06;20.30;99.90
10788;DHT22;5446;50.826;4.380;2023-08-01T14:57:32;20.20;99.90
10788;DHT22;5446;50.826;4.380;2023-08-01T14:59:58;20.20;99.90
10788;DHT22;5446;50.826;4.380;2023-08-01T15:02:24;20.10;99.90
10788;DHT22;5446;50.826;4.380;2023-08-01T15:04:55;20.10;99.90
10788;DHT22;5446;50.826;4.380;2023-08-01T15:07:22;20.00;99.90
10788;DHT22;5446;50.826;4.380;2023-08-01T15:09:48;20.00;99.90
10788;DHT22;5446;50.826;4.380;2023-08-01T15:12:16;19.90;99.90
10788;DHT22;5446;50.826;4.380;2023-08-01T15:14:42;20.00;99.90
10788;DHT22;5446;50.826;4.380;2023-08-01T15:17:07;19.80;99.90
10788;DHT22;5446;50.826;4.380;2023-08-01T15:19:35;19.50;99.90
10788;DHT22;5446;50.826;4.380;2023-08-01T15:22:01;19.50;99.90
10788;DHT22;5446;50.826;4.380;2023-08-01T15:24:30;19.30;99.90
10788;DHT22;5446;50.826;4.380;2023-08-01T15:26:55;19.40;99.90
10788;DHT22;5446;50.826;4.380;2023-08-01T15:29:21;19.20;99.90
10788;DHT22;5446;50.826;4.380;2023-08-01T15:31:47;19.00;99.90
10788;DHT22;5446;50.826;4.380;2023-08-01T15:34:13;18.90;99.90
10788;DHT22;5446;50.826;4.380;2023-08-01T15:36:39;18.90;99.90
10788;DHT22;5446;50.826;4.380;2023-08-01T15:39:05;19.00;99.90
10788;DHT22;5446;50.826;4.380;2023-08-01T15:41:30;19.00;99.90
10788;DHT22;5446;50.826;4.380;2023-08-01T15:43:56;19.00;99.90